Time;durP1;ratioP1;P1;durP2;ratioP2;P2;SDS_P1;SDS_P2;PMS_P1;PMS_P2;Temp;Humidity;BMP_temperature;BMP_pressure;BME280_temperature;BME280_humidity;BME280_pressure;Samples;Min_cycle;Max_cycle;Signal;HPM_P1;HPM_P2
2022/07/23 00:00:26;;;;;;;;;;;;;;;35.19;24.28;99046.38;4435562;32;34394;-88
2022/07/23 00:02:54;;;;;;;;;;;;;;;35.16;24.22;99044.84;4421631;32;32739;-87
2022/07/23 00:05:21;;;;;;;;;;;;;;;35.12;24.22;99051.50;4435620;32;34198;-86
2022/07/23 00:07:50;;;;;;;;;;;;;;;35.11;24.19;99039.00;4430107;32;34095;-88
2022/07/23 00:10:17;;;;;;;;;;;;;;;35.05;24.23;99035.03;4420029;32;34425;-88
2022/07/23 00:12:44;;;;;;;;;;;;;;;35.03;24.29;99041.56;4420195;32;34185;-87
2022/07/23 00:15:18;;;;;;;;;;;;;;;35.02;24.40;99042.56;4419989;32;33682;-88
2022/07/23 00:17:45;;;;;;;;;;;;;;;34.97;24.48;99042.09;4430446;32;33865;-88
2022/07/23 00:20:13;;;;;;;;;;;;;;;34.96;24.50;99034.97;4421368;32;34177;-88
2022/07/23 00:22:47;;;;;;;;;;;;;;;34.97;24.46;99036.72;4421483;32;33203;-87
2022/07/23 00:25:14;;;;;;;;;;;;;;;34.91;24.50;99037.25;4435696;32;34250;-88
2022/07/23 00:27:58;;;;;;;;;;;;;;;34.91;24.49;99042.63;4423669;32;33973;-87
2022/07/23 00:30:25;;;;;;;;;;;;;;;34.94;24.39;99034.28;4435603;32;34286;-88
2022/07/23 00:32:58;;;;;;;;;;;;;;;34.89;24.44;99034.69;4421863;32;33260;-86
2022/07/23 00:35:26;;;;;;;;;;;;;;;34.81;24.46;99043.44;4419766;32;34728;-88
2022/07/23 00:37:54;;;;;;;;;;;;;;;34.88;24.27;99040.22;4420133;32;35233;-88
2022/07/23 00:40:21;;;;;;;;;;;;;;;34.89;24.09;99034.69;4419633;32;35224;-87
2022/07/23 00:42:49;;;;;;;;;;;;;;;34.92;24.01;99044.34;4421525;32;34407;-87
2022/07/23 00:45:16;;;;;;;;;;;;;;;34.85;24.08;99044.91;4421911;32;34933;-85
2022/07/23 00:47:43;;;;;;;;;;;;;;;34.88;24.08;99049.13;4413902;32;32756;-88
2022/07/23 00:50:11;;;;;;;;;;;;;;;34.80;24.04;99049.84;4410765;32;33511;-88
2022/07/23 00:52:39;;;;;;;;;;;;;;;34.77;24.00;99052.78;4423569;32;33249;-88
2022/07/23 00:55:06;;;;;;;;;;;;;;;34.76;23.95;99051.09;4410775;32;34249;-88
2022/07/23 00:57:34;;;;;;;;;;;;;;;34.48;24.05;99051.81;4423580;32;34329;-88
2022/07/23 01:00:02;;;;;;;;;;;;;;;34.36;24.26;99042.97;4437640;32;34383;-88
2022/07/23 01:02:29;;;;;;;;;;;;;;;34.35;24.21;99047.50;4433734;32;33172;-88
2022/07/23 01:04:56;;;;;;;;;;;;;;;34.30;24.24;99043.53;4422700;32;35029;-87
2022/07/23 01:07:24;;;;;;;;;;;;;;;34.27;24.20;99039.25;4395859;32;34257;-87
2022/07/23 01:09:51;;;;;;;;;;;;;;;34.11;24.40;99036.19;4408117;32;34243;-87
2022/07/23 01:12:19;;;;;;;;;;;;;;;33.88;24.74;99043.53;4415844;32;33000;-87
2022/07/23 01:14:53;;;;;;;;;;;;;;;34.15;24.38;99040.31;4421843;32;33984;-87
2022/07/23 01:17:21;;;;;;;;;;;;;;;33.89;24.68;99043.38;4421853;32;34293;-87
2022/07/23 01:19:48;;;;;;;;;;;;;;;34.09;24.47;99036.31;4434408;32;34386;-88
2022/07/23 01:22:17;;;;;;;;;;;;;;;34.04;24.51;99037.72;4437295;32;33247;-88
2022/07/23 01:24:45;;;;;;;;;;;;;;;34.16;24.38;99039.31;4410669;32;32507;-88
2022/07/23 01:27:12;;;;;;;;;;;;;;;33.86;24.95;99038.25;4410619;32;35162;-87
2022/07/23 01:29:40;;;;;;;;;;;;;;;33.94;24.80;99042.13;4437007;32;34491;-87
2022/07/23 01:32:08;;;;;;;;;;;;;;;34.17;24.61;99037.50;4423387;32;33780;-87
2022/07/23 01:34:36;;;;;;;;;;;;;;;34.08;24.63;99040.00;4423961;32;35205;-88
2022/07/23 01:37:03;;;;;;;;;;;;;;;34.10;24.57;99035.34;4421568;32;34136;-88
2022/07/23 01:39:31;;;;;;;;;;;;;;;34.02;24.87;99039.66;4408111;32;34606;-87
2022/07/23 01:41:59;;;;;;;;;;;;;;;33.95;25.08;99044.72;4421971;32;33892;-87
2022/07/23 01:44:28;;;;;;;;;;;;;;;34.01;25.00;99033.44;4407708;32;35039;-87
2022/07/23 01:46:55;;;;;;;;;;;;;;;33.97;25.11;99036.50;4407871;32;34083;-88
2022/07/23 01:49:23;;;;;;;;;;;;;;;34.05;25.00;99042.09;4434634;32;34202;-87
2022/07/23 01:52:00;;;;;;;;;;;;;;;33.98;25.22;99032.81;4436800;32;33102;-87
2022/07/23 01:54:28;;;;;;;;;;;;;;;34.01;25.15;99037.97;4436290;32;34165;-87
2022/07/23 01:56:56;;;;;;;;;;;;;;;33.99;25.28;99029.19;4437227;32;35259;-87
2022/07/23 01:59:24;;;;;;;;;;;;;;;33.94;25.35;99032.22;4422804;32;34932;-87
2022/07/23 02:01:52;;;;;;;;;;;;;;;33.95;25.25;99038.50;4423107;32;34830;-88
2022/07/23 02:04:20;;;;;;;;;;;;;;;33.98;25.17;99039.09;4429256;32;35076;-87
2022/07/23 02:06:47;;;;;;;;;;;;;;;33.97;25.11;99031.13;4421283;32;34732;-87
2022/07/23 02:09:14;;;;;;;;;;;;;;;34.00;25.00;99025.50;4408065;32;34013;-87
2022/07/23 02:11:42;;;;;;;;;;;;;;;33.99;24.92;99026.50;4407814;32;33333;-88
2022/07/23 02:14:09;;;;;;;;;;;;;;;33.84;25.06;99026.81;4407807;32;34944;-86
2022/07/23 02:16:37;;;;;;;;;;;;;;;33.82;25.02;99033.28;4421565;32;34485;-87
2022/07/23 02:19:04;;;;;;;;;;;;;;;33.78;25.06;99030.00;4421354;32;35121;-88
2022/07/23 02:21:31;;;;;;;;;;;;;;;33.75;25.17;99021.34;4417358;32;33507;-87
2022/07/23 02:23:59;;;;;;;;;;;;;;;33.72;25.39;99026.97;4436849;32;34492;-87
2022/07/23 02:26:27;;;;;;;;;;;;;;;33.64;25.68;99030.31;4436817;32;34511;-86
2022/07/23 02:28:56;;;;;;;;;;;;;;;33.61;25.88;99030.59;4436855;32;33891;-88
2022/07/23 02:31:23;;;;;;;;;;;;;;;33.62;25.92;99030.47;4436788;32;32854;-88
2022/07/23 02:33:51;;;;;;;;;;;;;;;33.74;25.88;99036.62;4436602;32;34966;-87
2022/07/23 02:36:18;;;;;;;;;;;;;;;33.06;27.17;99036.03;4421730;32;35037;-87
2022/07/23 02:38:47;;;;;;;;;;;;;;;33.26;26.97;99041.56;4421648;32;33988;-87
2022/07/23 02:41:14;;;;;;;;;;;;;;;33.67;26.42;99032.75;4421329;32;34177;-87
2022/07/23 02:43:42;;;;;;;;;;;;;;;33.68;26.25;99037.16;4421353;32;34017;-88
2022/07/23 02:46:12;;;;;;;;;;;;;;;33.70;26.22;99034.34;4421369;32;34102;-87
2022/07/23 02:48:40;;;;;;;;;;;;;;;33.67;26.20;99038.13;4407846;32;33690;-88
2022/07/23 02:51:07;;;;;;;;;;;;;;;33.74;26.07;99035.78;4434396;32;33122;-87
2022/07/23 02:53:41;;;;;;;;;;;;;;;33.65;26.20;99032.91;4422838;32;33164;-87
2022/07/23 02:56:09;;;;;;;;;;;;;;;33.55;26.36;99031.13;4422520;32;34450;-86
2022/07/23 02:58:37;;;;;;;;;;;;;;;33.53;26.34;99028.56;4422350;32;32659;-87
2022/07/23 03:01:05;;;;;;;;;;;;;;;33.51;26.35;99033.22;4436641;32;32771;-87
2022/07/23 03:03:32;;;;;;;;;;;;;;;33.49;26.41;99028.94;4422335;32;33407;-88
2022/07/23 03:06:00;;;;;;;;;;;;;;;33.51;26.40;99027.84;4408495;32;34268;-87
2022/07/23 03:08:27;;;;;;;;;;;;;;;33.46;26.51;99024.69;4421264;32;34032;-87
2022/07/23 03:10:55;;;;;;;;;;;;;;;33.42;26.55;99021.38;4420889;32;33497;-88
2022/07/23 03:13:23;;;;;;;;;;;;;;;33.38;26.45;99025.31;4407095;32;34310;-87
2022/07/23 03:15:51;;;;;;;;;;;;;;;33.37;26.38;99025.41;4407212;32;34259;-88
2022/07/23 03:18:19;;;;;;;;;;;;;;;33.38;26.35;99025.31;4421033;32;33841;-88
2022/07/23 03:20:46;;;;;;;;;;;;;;;33.45;26.39;99025.63;4434952;32;33495;-87
2022/07/23 03:23:13;;;;;;;;;;;;;;;33.50;26.47;99027.97;4436324;32;35186;-87
2022/07/23 03:25:40;;;;;;;;;;;;;;;33.28;26.98;99027.03;4435977;32;35271;-86
2022/07/23 03:28:08;;;;;;;;;;;;;;;33.37;26.94;99023.56;4421063;32;34547;-88
2022/07/23 03:30:35;;;;;;;;;;;;;;;33.48;26.88;99016.47;4420886;32;33425;-87
2022/07/23 03:33:02;;;;;;;;;;;;;;;33.54;27.02;99024.03;4406850;32;35117;-87
2022/07/23 03:35:30;;;;;;;;;;;;;;;33.57;26.82;99018.41;4416608;32;34456;-87
2022/07/23 03:38:00;;;;;;;;;;;;;;;33.50;26.75;99023.44;4436416;32;34509;-87
2022/07/23 03:40:27;;;;;;;;;;;;;;;33.45;26.55;99024.75;4435895;32;33009;-88
2022/07/23 03:42:56;;;;;;;;;;;;;;;33.48;26.21;99029.91;4426973;32;35096;-88
2022/07/23 03:45:24;;;;;;;;;;;;;;;33.46;26.05;99021.12;4407050;32;34078;-88
2022/07/23 03:47:51;;;;;;;;;;;;;;;33.61;25.80;99027.91;4406900;32;33847;-89
2022/07/23 03:50:18;;;;;;;;;;;;;;;33.45;25.99;99031.00;4414421;32;33732;-88
2022/07/23 03:52:46;;;;;;;;;;;;;;;33.63;25.88;99028.62;4406714;32;33179;-88
2022/07/23 03:55:13;;;;;;;;;;;;;;;33.75;25.83;99035.63;4435670;32;34284;-88
2022/07/23 03:57:41;;;;;;;;;;;;;;;33.66;25.84;99036.44;4421930;32;34110;-88
2022/07/23 04:00:12;;;;;;;;;;;;;;;33.73;25.94;99034.09;4428278;32;33197;-87
2022/07/23 04:02:40;;;;;;;;;;;;;;;33.62;26.54;99032.31;4394528;32;33999;-87
2022/07/23 04:05:08;;;;;;;;;;;;;;;33.69;26.65;99032.66;4420291;32;33807;-88
2022/07/23 04:07:36;;;;;;;;;;;;;;;33.98;26.67;99038.19;4406635;32;33340;-88
2022/07/23 04:10:04;;;;;;;;;;;;;;;34.06;26.25;99041.13;4406216;32;34807;-87
2022/07/23 04:12:31;;;;;;;;;;;;;;;34.12;26.08;99038.75;4420079;32;32824;-87
2022/07/23 04:14:58;;;;;;;;;;;;;;;34.31;25.77;99046.06;4413498;32;32493;-87
2022/07/23 04:17:26;;;;;;;;;;;;;;;34.39;25.75;99048.09;4436998;32;34492;-87
2022/07/23 04:19:53;;;;;;;;;;;;;;;34.57;25.67;99046.50;4437628;32;34279;-88
2022/07/23 04:22:21;;;;;;;;;;;;;;;34.63;25.53;99045.12;4437119;32;34991;-87
2022/07/23 04:24:49;;;;;;;;;;;;;;;33.93;27.00;99045.81;4423614;32;34909;-87
2022/07/23 04:27:16;;;;;;;;;;;;;;;34.54;26.31;99045.91;4437938;32;33972;-88
2022/07/23 04:29:43;;;;;;;;;;;;;;;34.60;26.15;99042.69;4423793;32;33298;-88
2022/07/23 04:32:13;;;;;;;;;;;;;;;34.73;26.12;99045.12;4435965;32;34121;-88
2022/07/23 04:34:40;;;;;;;;;;;;;;;35.00;25.85;99044.53;4437775;32;34282;-87
2022/07/23 04:37:08;;;;;;;;;;;;;;;35.30;25.38;99044.41;4431977;32;33946;-87
2022/07/23 04:39:35;;;;;;;;;;;;;;;35.66;25.00;99041.22;4408439;32;34233;-88
2022/07/23 04:42:03;;;;;;;;;;;;;;;35.76;25.53;99045.59;4424071;32;34267;-87
2022/07/23 04:44:30;;;;;;;;;;;;;;;35.65;25.33;99044.88;4414654;32;34752;-88
2022/07/23 04:46:58;;;;;;;;;;;;;;;35.58;25.59;99050.84;4422382;32;35373;-87
2022/07/23 04:49:26;;;;;;;;;;;;;;;35.61;25.69;99041.59;4437781;32;33304;-88
2022/07/23 04:51:53;;;;;;;;;;;;;;;35.45;26.18;99052.09;4431630;32;34157;-85
2022/07/23 04:54:21;;;;;;;;;;;;;;;35.45;26.31;99052.94;4431148;32;35155;-86
2022/07/23 04:56:48;;;;;;;;;;;;;;;34.93;25.76;99048.72;4435955;32;34298;-86
2022/07/23 04:59:16;;;;;;;;;;;;;;;34.25;26.07;99052.00;4422043;32;33420;-87
2022/07/23 05:01:45;;;;;;;;;;;;;;;35.56;24.72;99046.59;4422135;32;33600;-86
2022/07/23 05:04:12;;;;;;;;;;;;;;;36.06;24.56;99052.66;4414480;32;33920;-88
2022/07/23 05:06:40;;;;;;;;;;;;;;;35.74;24.91;99044.88;4405527;32;34428;-88
2022/07/23 05:09:08;;;;;;;;;;;;;;;36.55;24.16;99044.44;4426716;32;32966;-88
2022/07/23 05:11:36;;;;;;;;;;;;;;;35.33;25.29;99046.00;4408432;32;34628;-88
2022/07/23 05:14:04;;;;;;;;;;;;;;;35.39;25.18;99041.91;4435048;32;34156;-90
2022/07/23 05:16:32;;;;;;;;;;;;;;;34.75;26.17;99052.09;4420201;32;33346;-90
2022/07/23 05:19:00;;;;;;;;;;;;;;;35.41;24.83;99045.28;4435318;32;34204;-90
2022/07/23 05:21:28;;;;;;;;;;;;;;;35.85;24.21;99045.72;4434167;32;35026;-88
2022/07/23 05:23:55;;;;;;;;;;;;;;;36.48;23.68;99046.88;4406786;32;35049;-88
2022/07/23 05:26:23;;;;;;;;;;;;;;;36.08;23.39;99051.69;4421178;32;34201;-89
2022/07/23 05:28:50;;;;;;;;;;;;;;;36.12;23.82;99048.53;4393040;32;33387;-87
2022/07/23 05:31:18;;;;;;;;;;;;;;;36.31;24.83;99055.72;4421026;32;34351;-89
2022/07/23 05:33:46;;;;;;;;;;;;;;;36.25;24.71;99057.16;4421047;32;35168;-90
2022/07/23 05:36:13;;;;;;;;;;;;;;;35.94;25.25;99059.19;4419355;32;35314;-89
2022/07/23 05:38:43;;;;;;;;;;;;;;;35.69;24.35;99049.88;4406172;32;32776;-90
2022/07/23 05:41:10;;;;;;;;;;;;;;;35.97;23.72;99048.09;4421974;32;34059;-90
2022/07/23 05:43:38;;;;;;;;;;;;;;;36.62;22.96;99053.63;4422424;32;35318;-85
2022/07/23 05:46:06;;;;;;;;;;;;;;;36.18;23.49;99050.66;4424617;32;34117;-86
2022/07/23 05:48:33;;;;;;;;;;;;;;;36.90;22.68;99045.53;4408219;32;34257;-86
2022/07/23 05:51:02;;;;;;;;;;;;;;;37.93;21.99;99046.94;4407839;32;34304;-86
2022/07/23 05:53:30;;;;;;;;;;;;;;;38.65;20.89;99053.81;4408265;32;34116;-86
2022/07/23 05:55:57;;;;;;;;;;;;;;;38.86;20.44;99047.97;4395199;32;33230;-86
2022/07/23 05:58:25;;;;;;;;;;;;;;;38.29;20.41;99046.81;4421630;32;33673;-87
2022/07/23 06:00:52;;;;;;;;;;;;;;;38.58;20.21;99047.34;4421566;32;34254;-86
2022/07/23 06:03:20;;;;;;;;;;;;;;;38.44;20.67;99047.94;4407880;32;34371;-86
2022/07/23 06:05:47;;;;;;;;;;;;;;;37.30;22.38;99047.00;4421249;32;34064;-86
2022/07/23 06:08:14;;;;;;;;;;;;;;;38.12;21.29;99044.03;4421584;32;34040;-86
2022/07/23 06:10:42;;;;;;;;;;;;;;;37.52;22.40;99041.16;4421392;32;34391;-87
2022/07/23 06:13:09;;;;;;;;;;;;;;;37.71;22.48;99034.72;4421801;32;34391;-87
2022/07/23 06:15:36;;;;;;;;;;;;;;;38.14;21.84;99036.56;4407479;32;34892;-87
2022/07/23 06:18:04;;;;;;;;;;;;;;;38.59;20.89;99045.47;4407554;32;33872;-87
2022/07/23 06:20:31;;;;;;;;;;;;;;;38.39;20.95;99039.47;4407482;32;34884;-87
2022/07/23 06:22:58;;;;;;;;;;;;;;;38.77;21.47;99034.56;4407719;32;34382;-87
2022/07/23 06:25:27;;;;;;;;;;;;;;;38.85;20.79;99034.63;4421445;32;34381;-87
2022/07/23 06:27:54;;;;;;;;;;;;;;;38.34;20.40;99030.97;4421314;32;33923;-87
2022/07/23 06:30:22;;;;;;;;;;;;;;;38.61;20.35;99030.78;4421415;32;34751;-86
2022/07/23 06:32:51;;;;;;;;;;;;;;;38.37;20.68;99031.50;4407158;32;34505;-86
2022/07/23 06:35:18;;;;;;;;;;;;;;;37.37;21.69;99031.88;4421451;32;34187;-87
2022/07/23 06:37:46;;;;;;;;;;;;;;;37.90;20.93;99028.31;4421312;32;33497;-88
2022/07/23 06:40:14;;;;;;;;;;;;;;;38.23;20.18;99029.38;4407097;32;34025;-87
2022/07/23 06:42:42;;;;;;;;;;;;;;;38.06;21.78;99031.13;4407348;32;33956;-86
2022/07/23 06:45:14;;;;;;;;;;;;;;;38.19;20.44;99028.00;4421487;32;33780;-87
2022/07/23 06:47:42;;;;;;;;;;;;;;;36.49;22.02;99031.53;4407309;32;33469;-87
2022/07/23 06:50:09;;;;;;;;;;;;;;;37.56;21.24;99028.19;4394599;32;32893;-87
2022/07/23 06:52:36;;;;;;;;;;;;;;;38.45;20.49;99038.81;4407163;32;33276;-87
2022/07/23 06:55:09;;;;;;;;;;;;;;;38.88;19.94;99043.25;4407752;32;35018;-87
2022/07/23 06:57:37;;;;;;;;;;;;;;;38.98;20.27;99029.56;4421069;32;34276;-87
2022/07/23 07:00:06;;;;;;;;;;;;;;;38.04;20.53;99035.84;4407321;32;35029;-87
2022/07/23 07:02:33;;;;;;;;;;;;;;;37.81;20.69;99034.63;4394965;32;33810;-86
2022/07/23 07:05:01;;;;;;;;;;;;;;;37.60;21.66;99022.28;4421222;32;34643;-86
2022/07/23 07:07:33;;;;;;;;;;;;;;;37.58;21.16;99026.16;4420810;32;34241;-88
2022/07/23 07:10:01;;;;;;;;;;;;;;;37.40;21.69;99026.16;4421068;32;34798;-87
2022/07/23 07:12:28;;;;;;;;;;;;;;;37.86;21.30;99024.19;4405961;32;33908;-86
2022/07/23 07:14:56;;;;;;;;;;;;;;;38.32;21.27;99022.97;4420579;32;34013;-87
2022/07/23 07:17:24;;;;;;;;;;;;;;;38.58;20.97;99025.69;4406423;32;31833;-87
2022/07/23 07:19:51;;;;;;;;;;;;;;;39.05;20.41;99019.75;4420869;32;33801;-86
2022/07/23 07:22:18;;;;;;;;;;;;;;;39.84;19.87;99020.19;4420680;32;34425;-86
2022/07/23 07:24:45;;;;;;;;;;;;;;;37.87;21.15;99015.91;4420691;32;34377;-86
2022/07/23 07:27:13;;;;;;;;;;;;;;;39.47;20.85;99009.81;4406844;32;33386;-84
2022/07/23 07:29:40;;;;;;;;;;;;;;;40.00;19.60;99008.47;4406334;32;32444;-84
2022/07/23 07:32:07;;;;;;;;;;;;;;;38.91;20.48;99015.84;4420761;32;34556;-85
2022/07/23 07:34:35;;;;;;;;;;;;;;;38.93;20.15;99015.66;4420620;32;34132;-85
2022/07/23 07:37:02;;;;;;;;;;;;;;;40.43;19.48;99015.34;4420227;32;33664;-86
2022/07/23 07:39:29;;;;;;;;;;;;;;;39.93;18.52;99019.19;4406624;32;34096;-85
2022/07/23 07:41:59;;;;;;;;;;;;;;;40.10;18.40;99014.56;4420924;32;34282;-86
2022/07/23 07:44:26;;;;;;;;;;;;;;;39.84;18.85;99023.75;4406429;32;34425;-86
2022/07/23 07:46:53;;;;;;;;;;;;;;;39.57;18.72;99010.50;4420543;32;34379;-88
2022/07/23 07:49:21;;;;;;;;;;;;;;;39.93;18.59;99013.75;4406730;32;35186;-86
2022/07/23 07:51:48;;;;;;;;;;;;;;;39.85;18.35;99013.75;4421253;32;34845;-86
2022/07/23 07:54:16;;;;;;;;;;;;;;;40.12;18.43;99013.41;4407396;32;33982;-86
2022/07/23 07:56:43;;;;;;;;;;;;;;;40.71;17.77;99007.59;4422532;32;32816;-87
2022/07/23 07:59:11;;;;;;;;;;;;;;;39.02;18.57;99008.38;4408384;32;34236;-87
2022/07/23 08:01:38;;;;;;;;;;;;;;;39.75;19.08;99010.37;4408315;32;35390;-86
2022/07/23 08:04:09;;;;;;;;;;;;;;;39.76;18.45;99010.19;4408808;32;34283;-86
2022/07/23 08:06:36;;;;;;;;;;;;;;;39.96;18.63;99005.22;4422285;32;33177;-87
2022/07/23 08:09:03;;;;;;;;;;;;;;;40.08;18.39;99017.44;4408500;32;34027;-87
2022/07/23 08:11:31;;;;;;;;;;;;;;;40.03;17.51;99016.25;4408474;32;35227;-86
2022/07/23 08:13:58;;;;;;;;;;;;;;;40.05;17.99;99011.53;4422285;32;34134;-86
2022/07/23 08:16:26;;;;;;;;;;;;;;;40.16;18.44;99018.47;4408590;32;33088;-87
2022/07/23 08:18:53;;;;;;;;;;;;;;;39.72;18.67;99016.13;4408728;32;34326;-86
2022/07/23 08:21:20;;;;;;;;;;;;;;;38.53;19.35;99024.44;4408362;32;35256;-86
2022/07/23 08:23:48;;;;;;;;;;;;;;;38.65;19.33;99024.00;4408768;32;33826;-86
2022/07/23 08:26:15;;;;;;;;;;;;;;;39.71;18.12;99014.44;4408412;32;33782;-86
2022/07/23 08:28:42;;;;;;;;;;;;;;;40.09;17.66;99005.56;4408477;32;34686;-86
2022/07/23 08:31:11;;;;;;;;;;;;;;;40.01;17.96;99011.00;4422105;32;34393;-86
2022/07/23 08:33:39;;;;;;;;;;;;;;;39.35;18.33;99015.59;4422561;32;35005;-86
2022/07/23 08:36:06;;;;;;;;;;;;;;;40.01;17.81;99015.59;4422043;32;33487;-87
2022/07/23 08:38:34;;;;;;;;;;;;;;;39.89;17.99;99026.81;4402144;32;34017;-85
2022/07/23 08:41:02;;;;;;;;;;;;;;;39.62;18.21;99008.97;4402949;32;34018;-87
2022/07/23 08:43:30;;;;;;;;;;;;;;;39.91;18.13;99015.78;4391707;32;34143;-87
2022/07/23 08:45:58;;;;;;;;;;;;;;;39.62;19.00;99017.09;4425878;32;33752;-87
2022/07/23 08:48:28;;;;;;;;;;;;;;;40.10;18.33;99022.69;4408557;32;33809;-86
2022/07/23 08:50:57;;;;;;;;;;;;;;;40.36;17.81;99012.47;4420175;32;33821;-86
2022/07/23 08:53:25;;;;;;;;;;;;;;;40.03;18.24;99011.66;4410772;32;33482;-87
2022/07/23 08:55:54;;;;;;;;;;;;;;;40.15;17.63;99011.34;4437367;32;34546;-86
2022/07/23 08:58:21;;;;;;;;;;;;;;;40.42;17.50;99013.62;4423573;32;33902;-87
2022/07/23 09:00:56;;;;;;;;;;;;;;;40.75;17.55;99006.22;4437177;32;34210;-85
2022/07/23 09:03:25;;;;;;;;;;;;;;;40.19;18.20;99004.53;4421346;32;33748;-88
2022/07/23 09:05:52;;;;;;;;;;;;;;;40.04;18.17;99005.22;4416454;32;34048;-88
2022/07/23 09:08:21;;;;;;;;;;;;;;;40.92;16.87;99012.41;4409034;32;33896;-88
2022/07/23 09:10:55;;;;;;;;;;;;;;;40.37;17.18;99005.16;4407975;32;35215;-90
2022/07/23 09:13:45;;;;;;;;;;;;;;;40.51;17.05;99009.87;4428768;32;34154;-88
2022/07/23 09:16:14;;;;;;;;;;;;;;;40.47;17.43;99004.97;4428516;32;32944;-86
2022/07/23 09:18:44;;;;;;;;;;;;;;;40.47;17.00;99010.41;4410334;32;34178;-88
2022/07/23 09:21:12;;;;;;;;;;;;;;;38.96;18.64;99009.91;4421936;32;34225;-86
2022/07/23 09:24:00;;;;;;;;;;;;;;;40.17;17.45;98998.44;4395405;32;33281;-87
2022/07/23 09:26:32;;;;;;;;;;;;;;;40.46;17.05;98998.69;4421814;32;33349;-90
2022/07/23 09:29:00;;;;;;;;;;;;;;;40.78;16.97;99002.28;4421941;32;34062;-87
2022/07/23 09:31:33;;;;;;;;;;;;;;;41.31;16.38;98997.91;4408073;32;35184;-86
2022/07/23 09:34:19;;;;;;;;;;;;;;;40.35;17.55;98997.19;4407954;32;34272;-88
2022/07/23 09:36:47;;;;;;;;;;;;;;;41.00;17.26;99004.25;4395530;32;32168;-86
2022/07/23 09:39:15;;;;;;;;;;;;;;;41.43;16.52;98995.63;4395387;32;32728;-87
2022/07/23 09:41:43;;;;;;;;;;;;;;;42.01;15.82;98994.91;4421814;32;35040;-86
2022/07/23 09:44:12;;;;;;;;;;;;;;;40.27;17.43;98989.09;4421716;32;34360;-87
2022/07/23 09:46:40;;;;;;;;;;;;;;;41.05;17.27;98987.37;4415650;32;34225;-89
2022/07/23 09:49:25;;;;;;;;;;;;;;;41.49;17.06;98990.31;4427178;32;34377;-89
2022/07/23 09:51:54;;;;;;;;;;;;;;;41.59;16.76;98987.31;4437039;32;34214;-89
2022/07/23 09:54:24;;;;;;;;;;;;;;;41.09;16.72;98989.53;4419343;32;34325;-87
2022/07/23 09:56:52;;;;;;;;;;;;;;;41.70;16.28;98991.47;4437027;32;34236;-87
2022/07/23 09:59:22;;;;;;;;;;;;;;;41.44;15.88;98992.72;4422910;32;34366;-91
2022/07/23 10:01:50;;;;;;;;;;;;;;;40.28;16.30;98984.50;4437115;32;34622;-89
2022/07/23 10:04:17;;;;;;;;;;;;;;;40.41;17.14;98979.34;4410654;32;34166;-88
2022/07/23 10:06:46;;;;;;;;;;;;;;;41.14;16.22;98983.56;4412254;32;33566;-87
2022/07/23 10:09:17;;;;;;;;;;;;;;;41.23;16.14;98979.78;4408426;32;32614;-87
2022/07/23 10:11:47;;;;;;;;;;;;;;;40.91;16.45;98974.50;4408139;32;33034;-88
2022/07/23 10:14:19;;;;;;;;;;;;;;;41.16;16.66;98976.06;4407554;32;34864;-89
2022/07/23 10:16:49;;;;;;;;;;;;;;;41.39;16.08;98962.47;4408196;32;34275;-88
2022/07/23 10:19:16;;;;;;;;;;;;;;;41.85;15.92;98961.56;4407444;32;35390;-90
2022/07/23 10:21:48;;;;;;;;;;;;;;;42.04;15.96;98964.59;4422149;32;34345;-85
2022/07/23 10:24:34;;;;;;;;;;;;;;;41.74;15.54;98963.69;4421314;32;34985;-85
2022/07/23 10:27:09;;;;;;;;;;;;;;;41.75;14.66;98964.53;4407248;32;33428;-87
2022/07/23 10:29:40;;;;;;;;;;;;;;;41.60;15.26;98963.66;4407493;32;34624;-87
2022/07/23 10:32:17;;;;;;;;;;;;;;;41.87;14.93;98963.09;4421416;32;34001;-85
2022/07/23 10:34:59;;;;;;;;;;;;;;;41.13;15.39;98962.00;4407650;32;34249;-87
2022/07/23 10:37:34;;;;;;;;;;;;;;;41.53;15.10;98964.41;4409406;32;34017;-88
2022/07/23 10:40:09;;;;;;;;;;;;;;;41.99;14.82;98950.69;4422961;32;34240;-87
2022/07/23 10:42:37;;;;;;;;;;;;;;;41.44;14.71;98949.16;4436682;32;35356;-94
2022/07/23 10:45:23;;;;;;;;;;;;;;;40.81;15.22;98945.69;4436882;32;34405;-88
2022/07/23 10:47:50;;;;;;;;;;;;;;;41.19;14.43;98942.25;4436817;32;32739;-88
2022/07/23 10:50:19;;;;;;;;;;;;;;;41.52;14.84;98946.41;4422933;32;34630;-89
2022/07/23 10:53:05;;;;;;;;;;;;;;;41.55;14.25;98946.00;4435234;32;34315;-88
2022/07/23 10:55:33;;;;;;;;;;;;;;;42.04;14.47;98939.22;4415746;32;33872;-87
2022/07/23 10:58:01;;;;;;;;;;;;;;;41.93;14.27;98935.09;4421233;32;32988;-84
2022/07/23 11:00:29;;;;;;;;;;;;;;;42.24;13.31;98928.59;4420967;32;35243;-85
2022/07/23 11:03:00;;;;;;;;;;;;;;;42.10;14.33;98932.22;4407300;32;34420;-85
2022/07/23 11:05:44;;;;;;;;;;;;;;;42.12;12.58;98930.97;4407195;32;34892;-86
2022/07/23 11:08:19;;;;;;;;;;;;;;;42.56;13.16;98926.53;4420938;32;34082;-86
2022/07/23 11:10:51;;;;;;;;;;;;;;;41.73;13.93;98923.06;4394396;32;33974;-85
2022/07/23 11:13:21;;;;;;;;;;;;;;;42.03;13.40;98926.66;4420853;32;34174;-84
2022/07/23 11:16:01;;;;;;;;;;;;;;;42.03;13.72;98921.22;4420920;32;35091;-84
2022/07/23 11:18:44;;;;;;;;;;;;;;;41.96;14.77;98923.00;4406781;32;33517;-85
2022/07/23 11:21:21;;;;;;;;;;;;;;;42.24;14.21;98917.69;4420750;32;34658;-87
2022/07/23 11:23:58;;;;;;;;;;;;;;;40.69;14.69;98910.94;4431952;32;35069;-83
2022/07/23 11:26:43;;;;;;;;;;;;;;;41.93;13.87;98918.75;4436156;32;34431;-84
2022/07/23 11:29:33;;;;;;;;;;;;;;;41.75;14.13;98907.34;4422484;32;33112;-85
2022/07/23 11:32:05;;;;;;;;;;;;;;;42.19;14.27;98907.38;4421716;32;33362;-85
2022/07/23 11:34:37;;;;;;;;;;;;;;;42.68;13.97;98903.19;4435789;32;34349;-84
2022/07/23 11:37:05;;;;;;;;;;;;;;;42.28;14.23;98908.12;4433024;32;35124;-86
2022/07/23 11:39:33;;;;;;;;;;;;;;;41.55;14.60;98899.75;4406765;32;33041;-85
2022/07/23 11:42:04;;;;;;;;;;;;;;;42.15;14.46;98897.06;4420952;32;34045;-87
2022/07/23 11:44:35;;;;;;;;;;;;;;;41.92;15.02;98887.13;4420542;32;34015;-87
2022/07/23 11:47:04;;;;;;;;;;;;;;;42.41;14.17;98891.97;4405828;32;33961;-88
2022/07/23 11:49:32;;;;;;;;;;;;;;;41.79;14.34;98879.59;4406939;32;33372;-87
2022/07/23 11:52:04;;;;;;;;;;;;;;;41.59;14.75;98880.31;4410037;32;34349;-86
2022/07/23 11:54:32;;;;;;;;;;;;;;;42.39;14.33;98880.41;4435770;32;34331;-86
2022/07/23 11:57:06;;;;;;;;;;;;;;;42.09;13.96;98878.75;4435802;32;35064;-86
2022/07/23 11:59:33;;;;;;;;;;;;;;;42.62;13.55;98885.72;4408858;32;862353;-85
2022/07/23 12:02:02;;;;;;;;;;;;;;;42.98;13.57;98873.94;4422108;32;35249;-85
2022/07/23 12:04:41;;;;;;;;;;;;;;;42.48;13.62;98868.38;4421825;32;35274;-86
2022/07/23 12:07:29;;;;;;;;;;;;;;;42.75;12.79;98857.78;4414498;32;35002;-84
2022/07/23 12:09:58;;;;;;;;;;;;;;;42.71;13.21;98859.19;4426600;32;34108;-85
2022/07/23 12:12:26;;;;;;;;;;;;;;;42.52;13.45;98857.94;4413956;32;34185;-85
2022/07/23 12:14:54;;;;;;;;;;;;;;;41.49;14.57;98862.41;4403588;32;34779;-86
2022/07/23 12:17:27;;;;;;;;;;;;;;;42.70;13.62;98850.19;4415896;32;34451;-86
2022/07/23 12:19:55;;;;;;;;;;;;;;;42.60;13.92;98854.22;4416504;32;33570;-86
2022/07/23 12:22:23;;;;;;;;;;;;;;;42.92;13.60;98850.16;4414190;32;34268;-85
2022/07/23 12:24:57;;;;;;;;;;;;;;;43.03;13.25;98852.34;4435664;32;34402;-85
2022/07/23 12:27:25;;;;;;;;;;;;;;;42.12;13.79;98842.97;4421621;32;34795;-85
2022/07/23 12:29:53;;;;;;;;;;;;;;;42.12;14.14;98848.41;4421347;32;33224;-86
2022/07/23 12:32:27;;;;;;;;;;;;;;;42.68;13.69;98843.22;4432390;32;34772;-86
2022/07/23 12:35:05;;;;;;;;;;;;;;;43.28;13.13;98830.13;4420032;32;33934;-86
2022/07/23 12:37:33;;;;;;;;;;;;;;;42.75;13.58;98833.22;4406669;32;34212;-87
2022/07/23 12:40:18;;;;;;;;;;;;;;;42.85;13.42;98830.16;4422109;32;33455;-86
2022/07/23 12:42:47;;;;;;;;;;;;;;;43.25;13.10;98823.19;4422040;32;34216;-86
2022/07/23 12:45:15;;;;;;;;;;;;;;;42.22;14.76;98821.72;4408251;32;34055;-86
2022/07/23 12:47:53;;;;;;;;;;;;;;;42.00;15.28;98818.94;4427956;32;33794;-86
2022/07/23 12:50:39;;;;;;;;;;;;;;;42.66;15.37;98812.56;4423839;32;33491;-86
2022/07/23 12:53:06;;;;;;;;;;;;;;;43.15;14.10;98803.56;4437345;32;33804;-86
2022/07/23 12:55:42;;;;;;;;;;;;;;;42.88;14.10;98806.06;4437402;32;34128;-85
2022/07/23 12:58:39;;;;;;;;;;;;;;;42.76;14.02;98803.03;4412844;32;33432;-87